Sedalia, NC (27342)

12:49 AM EDT on July 06, 2015 (GMT -0400)
Burlington | | Change Station
CLOSE
Current Station
Personal Weather Station
Location: Burlington, NC
Elevation: 617 ft
Nearby Weather Stations

Elev 617 ft 36.04 °N, 79.51 °W | Updated 4 minutes ago

Rain
Rain
70.2 °F
Feels Like 70.2 °F
N
0.0
Wind Variable Wind from NNW
Gusts 0.0 mph

Today
High -- | Low -- °F
--% Chance of Precip.
Yesterday
High -- | Low -- °F
Precip. -- in
6:07 AM 8:38 PM
Waning Gibbous, 79% visible
Pressure 30.08 in
Visibility 10.0 miles
Clouds Few 4000 ft
Scattered Clouds 9500 ft
Scattered Clouds 12000 ft
Dew Point 70 °F
Humidity 99%
Rainfall 0.00 in
Snow Depth Not available.
UV 0 out of 12
Pollen .90 out of 12
Air Quality Not available.
Flu Activity Not available.
METAR KBUY 060354Z AUTO 11003KT 10SM FEW040 SCT095 SCT120 22/21 A3010 RMK AO2 SLP184 T02170206

More Conditions Fewer Conditions

Pressure 30.08 in
Visibility 10.0 miles
Clouds Few 4000 ft
Scattered Clouds 9500 ft
Scattered Clouds 12000 ft
Dew Point 70 °F
Humidity 99%
Rainfall 0.00 in
Snow Depth Not available.
UV 0 out of 12
Pollen .90 out of 12
Air Quality Not available.
Flu Activity Not available.
METAR KBUY 060354Z AUTO 11003KT 10SM FEW040 SCT095 SCT120 22/21 A3010 RMK AO2 SLP184 T02170206

More Conditions Fewer Conditions

10-Day Weather Forecast

×

Almanac

Astronomy

Jul. 06, 2015 Rise Set
Actual Time
Civil Twilight
Nautical Twilight
Astronomical Twilight
Moon
Length of Visible Light
Length of Day
Tomorrow will be .
, % of the Moon is Illuminated

Today's Extremes

State Highs State Lows

Community

WunderPhotos

Upload Photos

1,835,487 photos uploaded!

WunderBlogs® & News

Nearby

Air Quality

  Air Quality AQ Index Pollutant
Not available.

Snow Depth

Station Depth Elevation

Earthquake Activity

City Distance Mag. Time & Date
Minimum magnitude displayed is 2.5.

Coastal Water Temperatures

Place Temperature

Stations

Nearby Weather Stations

Station Location Temp. Windchill Dew Point Humidity Wind Precip. Elev Updated Type